createdAt,value
2018-05-18T00:01:32.625Z,95.00
2018-05-18T00:04:02.184Z,94.90
2018-05-18T00:06:30.473Z,94.90
2018-05-18T00:08:58.757Z,95.00
2018-05-18T00:11:27.073Z,95.00
2018-05-18T00:13:55.452Z,95.00
2018-05-18T00:16:23.755Z,95.20
2018-05-18T00:18:51.997Z,95.30
2018-05-18T00:21:20.389Z,95.40
2018-05-18T00:23:49.914Z,95.30
2018-05-18T00:26:18.240Z,95.20
2018-05-18T00:28:46.599Z,95.30
2018-05-18T00:31:15.676Z,95.40
2018-05-18T00:33:44.738Z,95.60
2018-05-18T00:36:12.996Z,95.60
2018-05-18T00:38:41.312Z,95.50
2018-05-18T00:41:09.564Z,95.60
2018-05-18T00:43:37.867Z,95.50
2018-05-18T00:46:06.165Z,95.60
2018-05-18T00:48:35.206Z,95.80
2018-05-18T00:51:03.521Z,95.80
2018-05-18T00:53:31.774Z,95.80
2018-05-18T00:56:00.070Z,95.80
2018-05-18T00:58:28.297Z,95.80
2018-05-18T01:00:56.620Z,95.90
2018-05-18T01:03:24.897Z,96.00
2018-05-18T01:05:53.250Z,96.10
2018-05-18T01:08:21.552Z,96.10
2018-05-18T01:10:49.847Z,96.00
2018-05-18T01:13:18.973Z,96.00
2018-05-18T01:15:47.323Z,96.00
2018-05-18T01:18:15.557Z,96.00
2018-05-18T01:20:43.817Z,96.00
2018-05-18T01:23:12.094Z,96.00
2018-05-18T01:25:43.321Z,96.00
2018-05-18T01:28:11.582Z,96.20
2018-05-18T01:30:39.855Z,96.20
2018-05-18T01:33:08.144Z,96.10
2018-05-18T01:35:36.413Z,96.20
2018-05-18T01:38:04.703Z,96.30
2018-05-18T01:40:33.120Z,96.40
2018-05-18T01:43:02.301Z,96.40
2018-05-18T01:45:30.696Z,96.50
2018-05-18T01:47:58.967Z,96.70
2018-05-18T01:50:27.228Z,96.90
2018-05-18T01:52:55.524Z,96.70
2018-05-18T01:55:23.774Z,96.60
2018-05-18T01:57:52.961Z,96.50
2018-05-18T02:00:22.194Z,96.70
2018-05-18T02:02:51.233Z,96.70
2018-05-18T02:05:20.256Z,97.00
2018-05-18T02:07:48.560Z,97.00
2018-05-18T02:10:16.831Z,97.10
2018-05-18T02:12:48.849Z,97.00
2018-05-18T02:15:17.892Z,96.80
2018-05-18T02:17:47.259Z,96.60
2018-05-18T02:20:15.516Z,96.60
2018-05-18T02:22:43.760Z,96.70
2018-05-18T02:25:12.798Z,96.90
2018-05-18T02:27:41.076Z,96.90
2018-05-18T02:30:09.351Z,96.90
2018-05-18T02:32:37.660Z,97.00
2018-05-18T02:35:05.920Z,97.10
2018-05-18T02:37:34.340Z,97.10
2018-05-18T02:40:02.604Z,97.20
2018-05-18T02:42:30.871Z,97.60
2018-05-18T02:44:59.145Z,97.40
2018-05-18T02:47:27.448Z,97.30
2018-05-18T02:49:56.513Z,97.30
2018-05-18T02:52:25.792Z,97.30
2018-05-18T02:54:53.974Z,97.20
2018-05-18T02:57:22.236Z,97.40
2018-05-18T02:59:50.482Z,97.60
2018-05-18T03:02:19.431Z,97.60
2018-05-18T03:04:47.780Z,97.30
2018-05-18T03:07:16.036Z,97.60
2018-05-18T03:09:44.348Z,97.40
2018-05-18T03:12:12.618Z,97.20
2018-05-18T03:14:42.192Z,97.30
2018-05-18T03:17:11.212Z,97.20
2018-05-18T03:19:39.472Z,97.20
2018-05-18T03:22:07.774Z,97.30
2018-05-18T03:24:37.186Z,97.30
2018-05-18T03:27:05.462Z,97.20
2018-05-18T03:29:33.762Z,97.00
2018-05-18T03:32:02.053Z,97.00
2018-05-18T03:34:31.094Z,96.80
2018-05-18T03:36:59.365Z,96.80
2018-05-18T03:39:27.680Z,96.80
2018-05-18T03:41:55.958Z,96.90
2018-05-18T03:44:24.255Z,96.80
2018-05-18T03:46:53.317Z,96.90
2018-05-18T03:49:21.571Z,96.80
2018-05-18T03:51:49.882Z,96.70
2018-05-18T03:54:18.159Z,96.70
2018-05-18T03:56:47.173Z,96.80
2018-05-18T03:59:16.252Z,96.90
2018-05-18T04:01:57.110Z,96.70
2018-05-18T04:04:37.716Z,96.70
2018-05-18T04:07:18.700Z,96.50
2018-05-18T04:09:46.977Z,96.40
2018-05-18T04:12:15.214Z,96.50
2018-05-18T04:14:44.276Z,96.30
2018-05-18T04:17:12.566Z,96.30
2018-05-18T04:19:40.830Z,96.60
2018-05-18T04:22:09.125Z,96.60
2018-05-18T04:24:37.420Z,96.50
2018-05-18T04:27:06.510Z,96.10
2018-05-18T04:29:34.789Z,96.10
2018-05-18T04:32:03.881Z,96.10
2018-05-18T04:34:32.241Z,96.10
2018-05-18T04:37:00.499Z,95.80
2018-05-18T04:39:28.771Z,96.00
2018-05-18T04:41:58.316Z,95.90
2018-05-18T04:44:26.672Z,95.70
2018-05-18T04:46:54.952Z,96.00
2018-05-18T04:49:23.209Z,95.90
2018-05-18T04:51:51.916Z,96.10
2018-05-18T04:54:20.266Z,96.20
2018-05-18T04:56:49.534Z,96.20
2018-05-18T04:59:18.688Z,96.10
2018-05-18T05:01:46.992Z,96.00
2018-05-18T05:04:15.982Z,96.40
2018-05-18T05:06:45.058Z,96.00
2018-05-18T05:09:13.304Z,96.00
2018-05-18T05:11:42.757Z,96.00
2018-05-18T05:14:11.006Z,95.90
2018-05-18T05:16:39.287Z,95.60
2018-05-18T05:19:07.612Z,95.40
2018-05-18T05:21:35.842Z,95.30
2018-05-18T05:24:04.909Z,95.60
2018-05-18T05:26:33.202Z,95.30
2018-05-18T05:29:01.441Z,95.00
2018-05-18T05:31:29.734Z,94.60
2018-05-18T05:33:58.761Z,95.20
2018-05-18T05:36:27.878Z,94.80
2018-05-18T05:38:57.660Z,94.70
2018-05-18T05:41:26.974Z,94.80
2018-05-18T05:43:56.031Z,94.10
2018-05-18T05:46:24.384Z,94.10
2018-05-18T05:48:52.561Z,94.30
2018-05-18T05:51:20.868Z,94.10
2018-05-18T05:53:49.161Z,94.00
2018-05-18T05:56:18.301Z,93.90
2018-05-18T05:58:47.395Z,93.90
2018-05-18T06:01:15.738Z,94.30
2018-05-18T06:03:44.763Z,94.20
2018-05-18T06:06:13.113Z,94.10
2018-05-18T06:08:42.509Z,94.00
2018-05-18T06:11:10.772Z,94.20
2018-05-18T06:13:39.114Z,93.70
2018-05-18T06:16:07.427Z,93.40
2018-05-18T06:18:35.711Z,93.20
2018-05-18T06:21:04.717Z,93.00
2018-05-18T06:23:37.527Z,93.00
2018-05-18T06:26:05.823Z,93.00
2018-05-18T06:28:34.067Z,93.20
2018-05-18T06:31:02.373Z,93.20
2018-05-18T06:33:30.673Z,93.60
2018-05-18T06:35:58.997Z,93.10
2018-05-18T06:38:27.327Z,93.30
2018-05-18T06:40:55.572Z,93.20
2018-05-18T06:43:24.891Z,93.30
2018-05-18T06:45:53.145Z,93.30
2018-05-18T06:48:22.666Z,92.80
2018-05-18T06:50:50.960Z,93.30
2018-05-18T06:53:19.192Z,93.20
2018-05-18T06:55:47.513Z,93.40
2018-05-18T06:58:15.903Z,92.90
2018-05-18T07:00:44.146Z,93.20
2018-05-18T07:03:12.457Z,93.00
2018-05-18T07:05:40.823Z,92.70
2018-05-18T07:08:09.137Z,92.90
2018-05-18T07:10:38.212Z,92.60
2018-05-18T07:13:06.478Z,92.60
2018-05-18T07:15:34.775Z,92.80
2018-05-18T07:18:03.563Z,92.00
2018-05-18T07:20:31.836Z,92.40
2018-05-18T07:23:00.179Z,92.10
2018-05-18T07:25:30.314Z,92.20
2018-05-18T07:27:58.596Z,92.20
2018-05-18T07:30:28.371Z,91.60
2018-05-18T07:32:56.661Z,91.60
2018-05-18T07:35:24.933Z,91.40
2018-05-18T07:37:56.935Z,91.50
2018-05-18T07:40:25.190Z,91.30
2018-05-18T07:42:53.483Z,91.20
2018-05-18T07:45:22.705Z,90.90
2018-05-18T07:47:51.025Z,90.80
2018-05-18T07:50:19.330Z,90.70
2018-05-18T07:52:47.588Z,90.90
2018-05-18T07:55:15.887Z,91.10
2018-05-18T07:57:44.206Z,91.30
2018-05-18T08:00:12.518Z,90.90
2018-05-18T08:02:40.785Z,91.00
2018-05-18T08:05:09.191Z,90.60
2018-05-18T08:07:37.429Z,90.30
2018-05-18T08:10:05.747Z,90.10
2018-05-18T08:12:34.004Z,90.00
2018-05-18T08:15:02.414Z,90.10
2018-05-18T08:17:31.352Z,90.30
2018-05-18T08:19:59.674Z,90.30
2018-05-18T08:22:30.201Z,90.00
2018-05-18T08:24:59.263Z,89.60
2018-05-18T08:27:28.333Z,89.50
2018-05-18T08:29:56.626Z,89.10
2018-05-18T08:32:24.903Z,87.80
2018-05-18T08:34:53.146Z,87.70
2018-05-18T08:37:21.457Z,87.50
2018-05-18T08:39:49.730Z,86.40
2018-05-18T08:42:18.122Z,85.90
2018-05-18T08:44:46.400Z,86.40
2018-05-18T08:47:14.719Z,85.80
2018-05-18T08:49:43.807Z,86.30
2018-05-18T08:52:12.078Z,86.30
2018-05-18T08:54:40.927Z,85.80
2018-05-18T08:57:09.212Z,86.50
2018-05-18T08:59:38.278Z,86.20
2018-05-18T09:02:06.559Z,86.70
2018-05-18T09:04:34.907Z,87.00
2018-05-18T09:07:04.045Z,85.90
2018-05-18T09:09:36.168Z,85.90
2018-05-18T09:12:05.310Z,86.10
2018-05-18T09:14:33.589Z,85.00
2018-05-18T09:17:01.863Z,85.20
2018-05-18T09:19:30.195Z,85.40
2018-05-18T09:22:00.154Z,84.00
2018-05-18T09:24:28.562Z,83.90
2018-05-18T09:26:56.822Z,83.20
2018-05-18T09:29:25.136Z,83.40
2018-05-18T09:31:54.238Z,82.60
2018-05-18T09:34:23.255Z,81.90
2018-05-18T09:36:51.579Z,81.90
2018-05-18T09:39:20.560Z,82.00
2018-05-18T09:41:48.878Z,82.10
2018-05-18T09:44:17.918Z,81.60
2018-05-18T09:46:46.291Z,81.60
2018-05-18T09:49:14.579Z,82.10
2018-05-18T09:51:42.825Z,80.50
2018-05-18T09:54:11.158Z,80.50
2018-05-18T09:56:40.280Z,80.80
2018-05-18T09:59:09.420Z,80.50
2018-05-18T10:01:37.704Z,80.50
2018-05-18T10:04:07.157Z,82.30
2018-05-18T10:06:36.237Z,81.50
2018-05-18T10:09:06.608Z,82.20
2018-05-18T10:11:34.925Z,82.20
2018-05-18T10:14:03.972Z,83.00
2018-05-18T10:16:32.290Z,82.30
2018-05-18T10:19:00.566Z,81.70
2018-05-18T10:21:30.060Z,82.50
2018-05-18T10:23:58.284Z,82.90
2018-05-18T10:26:26.565Z,82.10
2018-05-18T10:28:54.879Z,83.50
2018-05-18T10:31:23.197Z,82.40
2018-05-18T10:33:52.240Z,80.80
2018-05-18T10:36:20.508Z,80.80
2018-05-18T10:38:48.820Z,82.20
2018-05-18T10:41:17.088Z,82.10
2018-05-18T10:43:45.379Z,82.70
2018-05-18T10:46:13.697Z,82.30
2018-05-18T10:48:42.774Z,82.70
2018-05-18T10:51:11.063Z,82.30
2018-05-18T10:53:39.316Z,82.00
2018-05-18T10:56:08.365Z,81.50
2018-05-18T10:58:37.027Z,81.50
2018-05-18T11:01:08.031Z,80.90
2018-05-18T11:03:36.333Z,82.40
2018-05-18T11:06:05.392Z,81.80
2018-05-18T11:08:33.675Z,81.80
2018-05-18T11:11:02.748Z,83.00
2018-05-18T11:13:31.026Z,83.00
2018-05-18T11:15:59.310Z,83.50
2018-05-18T11:18:27.663Z,83.60
2018-05-18T11:20:55.973Z,83.60
2018-05-18T11:23:24.324Z,83.60
2018-05-18T11:25:52.741Z,83.40
2018-05-18T11:28:21.806Z,81.40
2018-05-18T11:30:50.098Z,81.30
2018-05-18T11:33:18.362Z,82.20
2018-05-18T11:35:47.426Z,82.40
2018-05-18T11:38:15.680Z,82.50
2018-05-18T11:40:43.987Z,80.50
2018-05-18T11:43:12.300Z,80.70
2018-05-18T11:45:40.765Z,78.90
2018-05-18T11:48:09.911Z,79.60
2018-05-18T11:50:38.137Z,79.60
2018-05-18T11:53:06.417Z,79.90
2018-05-18T11:55:34.695Z,81.10
2018-05-18T11:58:03.002Z,81.00
2018-05-18T12:00:32.012Z,82.20
2018-05-18T12:03:00.310Z,82.20
2018-05-18T12:05:29.844Z,81.30
2018-05-18T12:07:58.089Z,82.10
2018-05-18T12:10:26.374Z,81.50
2018-05-18T12:12:54.777Z,82.60
2018-05-18T12:15:23.092Z,82.70
2018-05-18T12:17:51.377Z,82.20
2018-05-18T12:20:19.770Z,81.80
2018-05-18T12:22:47.949Z,81.20
2018-05-18T12:25:17.164Z,80.40
2018-05-18T12:27:45.441Z,81.20
2018-05-18T12:30:13.742Z,81.90
2018-05-18T12:32:43.522Z,82.40
2018-05-18T12:35:11.850Z,82.50
2018-05-18T12:37:40.190Z,81.60
2018-05-18T12:40:08.476Z,81.30
2018-05-18T12:42:36.863Z,81.90
2018-05-18T12:45:05.139Z,80.30
2018-05-18T12:47:34.536Z,80.40
2018-05-18T12:50:02.851Z,81.10
2018-05-18T12:52:31.133Z,82.00
2018-05-18T12:54:59.473Z,81.10
2018-05-18T12:57:27.805Z,80.80
2018-05-18T12:59:56.788Z,80.10
2018-05-18T13:02:25.151Z,80.20
2018-05-18T13:04:54.200Z,80.10
2018-05-18T13:07:22.595Z,79.90
2018-05-18T13:09:51.266Z,79.60
2018-05-18T13:12:19.552Z,79.80
2018-05-18T13:14:47.870Z,79.70
2018-05-18T13:17:16.139Z,79.80
2018-05-18T13:19:45.214Z,79.60
2018-05-18T13:22:13.447Z,79.70
2018-05-18T13:24:41.776Z,80.50
2018-05-18T13:27:10.051Z,81.50
2018-05-18T13:29:39.167Z,80.50
2018-05-18T13:32:07.470Z,80.30
2018-05-18T13:34:36.896Z,80.00
2018-05-18T13:37:05.156Z,80.00
2018-05-18T13:39:33.446Z,80.30
2018-05-18T13:42:01.718Z,80.30
2018-05-18T13:44:29.973Z,79.80
2018-05-18T13:46:58.378Z,78.60
2018-05-18T13:49:26.747Z,79.10
2018-05-18T13:51:54.998Z,77.70
2018-05-18T13:54:23.295Z,77.60
2018-05-18T13:56:51.570Z,77.50
2018-05-18T13:59:19.883Z,78.30
2018-05-18T14:01:48.156Z,77.80
2018-05-18T14:04:17.177Z,77.00
2018-05-18T14:06:45.973Z,77.10
2018-05-18T14:09:14.271Z,78.10
2018-05-18T14:11:42.549Z,79.00
2018-05-18T14:14:10.853Z,77.20
2018-05-18T14:16:40.012Z,75.50
2018-05-18T14:19:09.147Z,75.70
2018-05-18T14:21:37.458Z,75.70
2018-05-18T14:24:07.426Z,74.40
2018-05-18T14:26:35.723Z,74.40
2018-05-18T14:29:04.001Z,75.50
2018-05-18T14:31:32.348Z,75.90
2018-05-18T14:34:00.675Z,77.30
2018-05-18T14:36:29.742Z,75.40
2018-05-18T14:38:58.033Z,75.40
2018-05-18T14:41:26.312Z,75.70
2018-05-18T14:43:55.184Z,75.40
2018-05-18T14:46:23.436Z,74.70
2018-05-18T14:48:51.761Z,74.90
2018-05-18T14:51:20.811Z,75.20
2018-05-18T14:53:49.131Z,75.10
2018-05-18T14:56:18.163Z,75.10
2018-05-18T14:58:46.482Z,75.10
2018-05-18T15:01:14.786Z,76.90
2018-05-18T15:03:43.936Z,75.60
2018-05-18T15:06:12.190Z,75.50
2018-05-18T15:08:40.458Z,74.50
2018-05-18T15:11:08.971Z,75.80
2018-05-18T15:13:37.139Z,76.50
2018-05-18T15:16:05.440Z,75.20
2018-05-18T15:18:37.349Z,75.30
2018-05-18T15:21:05.675Z,75.30
2018-05-18T15:23:35.116Z,75.80
2018-05-18T15:26:04.141Z,77.70
2018-05-18T15:28:33.200Z,77.70
2018-05-18T15:31:03.395Z,78.80
2018-05-18T15:33:31.952Z,78.70
2018-05-18T15:36:00.227Z,78.20
2018-05-18T15:38:28.510Z,77.20
2018-05-18T15:40:56.788Z,76.80
2018-05-18T15:43:25.068Z,76.20
2018-05-18T15:45:53.373Z,76.20
2018-05-18T15:48:22.433Z,77.30
2018-05-18T15:50:50.741Z,77.10
2018-05-18T15:53:18.996Z,78.00
2018-05-18T15:55:47.297Z,78.20
2018-05-18T15:58:16.368Z,78.50
2018-05-18T16:00:44.757Z,78.40
2018-05-18T16:03:13.173Z,78.60
2018-05-18T16:05:41.451Z,77.80
2018-05-18T16:08:10.519Z,77.60
2018-05-18T16:10:38.811Z,77.50
2018-05-18T16:13:07.087Z,76.80
2018-05-18T16:15:35.405Z,78.50
2018-05-18T16:18:03.717Z,79.00
2018-05-18T16:20:32.009Z,78.10
2018-05-18T16:23:01.048Z,78.00
2018-05-18T16:25:29.341Z,78.00
2018-05-18T16:27:57.696Z,77.80
2018-05-18T16:30:25.917Z,78.40
2018-05-18T16:32:54.192Z,78.40
2018-05-18T16:35:22.469Z,77.90
2018-05-18T16:37:50.764Z,78.60
2018-05-18T16:40:19.871Z,79.60
2018-05-18T16:42:48.178Z,79.60
2018-05-18T16:45:16.481Z,79.70
2018-05-18T16:47:44.798Z,80.50
2018-05-18T16:50:13.857Z,81.10
2018-05-18T16:52:42.149Z,81.10
2018-05-18T16:55:10.502Z,80.60
2018-05-18T16:57:38.748Z,79.60
2018-05-18T17:00:07.859Z,80.50
2018-05-18T17:02:36.134Z,81.20
2018-05-18T17:05:04.501Z,81.00
2018-05-18T17:07:32.793Z,82.40
2018-05-18T17:10:01.114Z,81.80
2018-05-18T17:12:30.275Z,82.10
2018-05-18T17:14:59.557Z,82.10
2018-05-18T17:17:27.884Z,81.00
2018-05-18T17:19:56.145Z,81.70
2018-05-18T17:22:24.476Z,81.40
2018-05-18T17:24:52.757Z,81.80
2018-05-18T17:27:21.049Z,81.10
2018-05-18T17:29:49.315Z,82.80
2018-05-18T17:32:17.611Z,83.20
2018-05-18T17:34:45.930Z,81.40
2018-05-18T17:37:15.105Z,82.10
2018-05-18T17:39:43.385Z,82.10
2018-05-18T17:42:11.768Z,81.30
2018-05-18T17:44:40.034Z,80.50
2018-05-18T17:47:08.302Z,80.40
2018-05-18T17:49:36.610Z,79.80
2018-05-18T17:52:06.457Z,81.90
2018-05-18T17:54:38.429Z,81.90
2018-05-18T17:57:07.842Z,82.10
2018-05-18T17:59:36.163Z,82.00
2018-05-18T18:02:05.329Z,82.80
2018-05-18T18:04:33.679Z,82.70
2018-05-18T18:07:01.978Z,82.80
2018-05-18T18:09:30.363Z,83.00
2018-05-18T18:11:58.655Z,82.20
2018-05-18T18:14:28.858Z,82.90
2018-05-18T18:16:58.154Z,82.80
2018-05-18T18:19:26.414Z,82.40
2018-05-18T18:21:54.734Z,82.10
2018-05-18T18:24:23.890Z,82.10
2018-05-18T18:26:52.229Z,82.00
2018-05-18T18:29:21.428Z,83.80
2018-05-18T18:31:49.699Z,83.80
2018-05-18T18:34:17.969Z,84.80
2018-05-18T18:36:47.047Z,86.10
2018-05-18T18:39:15.337Z,86.10
2018-05-18T18:41:44.416Z,87.50
2018-05-18T18:44:12.740Z,87.30
2018-05-18T18:46:41.143Z,87.80
2018-05-18T18:49:09.452Z,88.30
2018-05-18T18:51:37.755Z,88.70
2018-05-18T18:54:06.058Z,89.90
2018-05-18T18:56:34.365Z,90.20
2018-05-18T18:59:03.453Z,90.30
2018-05-18T19:01:31.798Z,90.60
2018-05-18T19:04:00.058Z,90.90
2018-05-18T19:06:28.353Z,91.00
2018-05-18T19:08:57.912Z,91.30
2018-05-18T19:11:26.279Z,91.30
2018-05-18T19:13:54.581Z,91.60
2018-05-18T19:16:22.871Z,91.70
2018-05-18T19:18:51.176Z,91.90
2018-05-18T19:21:19.459Z,92.10
2018-05-18T19:23:48.670Z,92.10
2018-05-18T19:26:16.970Z,92.20
2018-05-18T19:28:45.336Z,92.50
2018-05-18T19:31:13.655Z,92.50
2018-05-18T19:33:41.924Z,92.80
2018-05-18T19:36:10.209Z,92.90
2018-05-18T19:38:38.489Z,93.00
2018-05-18T19:41:06.810Z,93.00
2018-05-18T19:43:35.076Z,93.20
2018-05-18T19:46:03.391Z,93.30
2018-05-18T19:48:32.556Z,93.40
2018-05-18T19:51:00.861Z,93.40
2018-05-18T19:53:31.267Z,93.90
2018-05-18T19:55:59.668Z,93.80
2018-05-18T19:58:29.148Z,94.00
2018-05-18T20:01:00.863Z,94.20
2018-05-18T20:03:29.366Z,94.20
2018-05-18T20:05:57.565Z,94.20
2018-05-18T20:08:25.897Z,94.40
2018-05-18T20:10:54.152Z,94.60
2018-05-18T20:13:22.483Z,94.50
2018-05-18T20:15:50.776Z,94.80
2018-05-18T20:18:19.227Z,94.80
2018-05-18T20:20:47.437Z,95.10
2018-05-18T20:23:16.525Z,95.30
2018-05-18T20:25:45.199Z,95.30
2018-05-18T20:28:13.520Z,95.40
2018-05-18T20:30:41.815Z,95.50
2018-05-18T20:33:10.115Z,95.90
2018-05-18T20:35:38.426Z,95.80
2018-05-18T20:38:07.527Z,96.20
2018-05-18T20:40:35.800Z,96.20
2018-05-18T20:43:04.911Z,96.30
2018-05-18T20:45:33.161Z,96.30
2018-05-18T20:48:02.083Z,96.20
2018-05-18T20:50:30.421Z,96.30
2018-05-18T20:52:58.706Z,96.50
2018-05-18T20:55:27.627Z,96.60
2018-05-18T20:57:55.937Z,96.80
2018-05-18T21:00:24.221Z,97.20
2018-05-18T21:02:52.536Z,97.30
2018-05-18T21:05:21.558Z,97.20
2018-05-18T21:07:49.880Z,97.20
2018-05-18T21:10:18.172Z,97.30
2018-05-18T21:12:46.460Z,97.30
2018-05-18T21:15:15.498Z,97.40
2018-05-18T21:17:43.791Z,97.30
2018-05-18T21:20:12.878Z,97.40
2018-05-18T21:22:41.165Z,97.60
2018-05-18T21:25:10.376Z,97.90
2018-05-18T21:27:38.670Z,97.90
2018-05-18T21:30:06.985Z,98.10
2018-05-18T21:32:35.261Z,97.70
2018-05-18T21:35:03.509Z,97.70
2018-05-18T21:37:32.560Z,96.90
2018-05-18T21:40:00.819Z,96.90
2018-05-18T21:42:29.112Z,97.00
2018-05-18T21:44:57.388Z,96.90
2018-05-18T21:47:25.683Z,96.70
2018-05-18T21:49:55.189Z,96.70
2018-05-18T21:52:24.601Z,96.80
2018-05-18T21:54:52.850Z,96.40
2018-05-18T21:57:21.136Z,96.30
2018-05-18T21:59:49.518Z,96.30
2018-05-18T22:02:17.820Z,96.10
2018-05-18T22:04:46.862Z,95.90
2018-05-18T22:07:15.174Z,95.90
2018-05-18T22:09:44.985Z,95.60
2018-05-18T22:12:13.271Z,95.60
2018-05-18T22:14:41.565Z,95.40
2018-05-18T22:17:10.615Z,95.50
2018-05-18T22:19:38.902Z,95.50
2018-05-18T22:22:07.286Z,95.90
2018-05-18T22:24:35.547Z,95.80
2018-05-18T22:27:03.839Z,95.30
2018-05-18T22:29:32.214Z,95.30
2018-05-18T22:32:00.472Z,95.00
2018-05-18T22:34:28.844Z,95.00
2018-05-18T22:36:57.117Z,94.90
2018-05-18T22:39:25.416Z,94.80
2018-05-18T22:41:53.710Z,94.90
2018-05-18T22:44:22.077Z,95.00
2018-05-18T22:46:50.350Z,95.10
2018-05-18T22:49:18.650Z,94.80
2018-05-18T22:51:46.996Z,94.90
2018-05-18T22:54:15.690Z,95.00
2018-05-18T22:56:44.005Z,94.70
2018-05-18T22:59:13.043Z,94.60
2018-05-18T23:01:41.286Z,94.60
2018-05-18T23:04:09.600Z,94.70
2018-05-18T23:06:37.870Z,94.60
2018-05-18T23:09:06.147Z,94.70
2018-05-18T23:11:34.505Z,94.70
2018-05-18T23:14:03.564Z,94.60
2018-05-18T23:16:32.604Z,94.60
2018-05-18T23:19:00.921Z,94.60
2018-05-18T23:21:31.168Z,94.70
2018-05-18T23:24:01.361Z,94.80
2018-05-18T23:26:31.345Z,94.60
2018-05-18T23:28:59.594Z,94.60
2018-05-18T23:31:29.142Z,94.60
2018-05-18T23:33:58.229Z,94.80
2018-05-18T23:36:27.439Z,95.40
2018-05-18T23:38:55.725Z,95.00
2018-05-18T23:41:24.014Z,95.00
2018-05-18T23:43:53.037Z,95.10
2018-05-18T23:46:21.341Z,95.00
2018-05-18T23:48:50.794Z,94.90
2018-05-18T23:51:19.060Z,95.10
2018-05-18T23:53:48.085Z,95.10
2018-05-18T23:56:16.376Z,95.10
2018-05-18T23:58:44.652Z,95.20
